Mazarn, Arkansas
Current Conditions -  °F | °C
As of 5:53 AM on Thursday 18 Dec 2014 (Local Time) from KHOT Reporting Station
Haze Haze  
Wind Chill: 33°   Ceiling: 500
Heat Index: 38°   Visibility: 6mi
Dew Point: 36°   Wind: 6mph
Humidity: 93%   Direction: 110°ESE
Pressure: 30.19"   Gusts: NA
Location:  34.3467°N, 93.3187°W
Report Text: KHOT 181153Z AUTO 11005KT 6SM BR OVC005 03/02 A3019 RMK AO2 SLP223 60008 70025 T00330022 10033 20028 56006
Loading
Personal Weather Stations






























Interactive Weather Map New forecast layout! Learn more

10-Day Weather Forecast

Advertisements
Track Severe Weather on mobile